Terminal Aerodrome Forecast
Issued by NWS

Home | Current Version | Previous Version | Text Only | Print | Product List | Glossary Off
Versions: 1 2 3 4 5 6 7 8 9 10 11 12 13 14 15 16

756
FTUS43 KICT 252324
TAFRSL
TAF
KRSL 252324Z 2600/2624 15012KT P6SM SCT250
     FM260200 09010KT P6SM VCTS SCT040CB BKN090
     FM260500 09007KT P6SM BKN090
     FM261000 36010KT P6SM SCT025
     FM261600 01012KT P6SM SCT040=

USA.gov is the U.S. government's official web portal to all federal, state and local government web resources and services.